Augusta Regional At Bush Field
KAGS : now visible

Airfield :











YOU CAN JOIN US ON...

 
LOGIN :

Register | Disclaimer

   EN    FR    IT 

 









Legend :    VFR   Marginal VFR   IFR   Intensive IFR   Very Intensive IFR
Visi :
Ceiling :
>= 8 km
>= 3000ft
5 to 8 km
1000 to 3000 ft
1500m to 5 km
500 to 1000 ft
800 to 1500m
200 to 500 ft
< 800m
< 200 ft
Symbols :   Thunderstorms  Fog  Heavy snow  Heavy precipitations  Wind > 20 kt






- Airport Elevation : 144 ft
- IATA code : AGS


KAGS - Augusta Regional At Bush Field

CURRENT METAR :
  • 130453Z 01006KT 10SM OVC023 06/03 A3034 RMK AO2 RAE13 SLP275 P0001 T00560033 401391011

EXPIRED METARs :
  • 130402Z 35006KT 5SM -RA BR OVC024 06/04 A3037 RMK AO2 P0001 T00560039
  • 130353Z 01006KT 2 1/2SM +RA BR OVC024 06/04 A3038 RMK AO2 SLP286 P0012 T00560039
  • 130342Z 04005KT 2 1/2SM +RA BR OVC025 06/04 A3037 RMK AO2 P0008 T00610039
  • 130253Z 04005KT 7SM -RA OVC026 07/03 A3038 RMK AO2 SLP288 P0003 60004 T00670028 58006

TAF KAGS
Valid from the 13 at 03:00 until the 14 at 00:00 UTC


130247Z 1303/1324 06010KT 5SM -RA OVC025
FM130500 05010KT 4SM -SHRA OVC015
FM131000 04010KT 2SM SHRA BR OVC006



MET'MAP, your aeronautical weather chart ! - Copyright ORBIFLY December 2007 - Disclaimer

ORBIFLY MET'MAP TEAM :

Programming & Development : Alexandra Zaïnal
Concept & original design : Baudouin d'Aumeries
Assistance for programming : Marc-Olivier Méhu
Technical & hardware support : Manuel Goepfert

Contact : metmap@orbifly.com




SOURCES & CREDITS :

   NOAA       Earth
Advisory